»·PEaware :: JBU515 KSTL-KORD

JBU515 :: KSTL-KORD

FLIGHT INFORMATION

Flight Status: Arrived
Operator:
JetBlue Airways
More flights by this operator :: More flights under this callsign
Pilot: Michael G. (10425)
Aircraft: AIRBUS A320
(A320)
More flights by this aircraft type
Origin: KSTL Lambert-St Louis Intl
United States
Destination: KORD Chicago-O'Hare Intl
United States
More flights between these airports :: More routes between these airports
Route: KSHEE3 LEBOY CASHN SHAIN1
File this flight plan on PilotEdge
Remarks:
Altitude:
(Current/Filed)
33,000ft
Speed:
(Current/Filed)
450kts
Departed: 20-May-17 09:59 AM
Arrived: 20-May-17 10:44 AM
Distance/Time
Traveled:
224nm/0:45
Distance/Time
To Go:
Arrived

Flight Plot

Page will automatically refresh every two minutes.


Map Options




Map Legend


Flown Route
Filed Route
Departure Airport
Arrival Airport
Navaid (VOR, NDB)
Fix

Horizontal Profiles

Position Reports

Time Latitude Longitude Heading Altitude Ground
Speed
20-May-17 09:46 38.737190 -90.354012 212 566ft 0kts
20-May-17 09:47 38.737630 -90.353544 236 566ft 2kts
20-May-17 09:48 38.737624 -90.353032 301 566ft 0kts
20-May-17 09:49 38.737624 -90.353032 301 566ft 0kts
20-May-17 09:50 38.737624 -90.353033 301 566ft 0kts
20-May-17 09:51 38.737625 -90.353034 301 566ft 0kts
20-May-17 09:52 38.737626 -90.353036 301 566ft 0kts
20-May-17 09:53 38.738534 -90.354154 324 566ft 8kts
20-May-17 09:54 38.740687 -90.354243 3 566ft 0kts
20-May-17 09:55 38.741781 -90.354208 359 566ft 10kts
20-May-17 09:56 38.744814 -90.356035 301 566ft 14kts
20-May-17 09:57 38.747289 -90.361082 301 566ft 15kts
20-May-17 09:58 38.749404 -90.365633 303 566ft 18kts
20-May-17 09:59 38.751199 -90.367049 61 566ft 9kts
20-May-17 10:00 38.751236 -90.365221 120 566ft 1kts
20-May-17 10:01 38.735538 -90.331551 106 1605ft 166kts
20-May-17 10:02 38.729594 -90.264483 87 3286ft 228kts
20-May-17 10:03 38.783089 -90.209650 357 5258ft 289kts
20-May-17 10:04 38.862578 -90.228261 326 8013ft 295kts
20-May-17 10:05 38.937282 -90.277643 327 10474ft 314kts
20-May-17 10:06 39.023034 -90.332490 327 11636ft 372kts
20-May-17 10:07 39.118380 -90.393661 327 13670ft 389kts
20-May-17 10:08 39.216921 -90.457224 326 15660ft 404kts
20-May-17 10:09 39.318699 -90.523133 326 17562ft 415kts
20-May-17 10:10 39.432471 -90.566229 1 19222ft 451kts
20-May-17 10:11 39.551427 -90.508690 29 20954ft 465kts
20-May-17 10:12 39.667893 -90.432491 23 22411ft 474kts
20-May-17 10:13 39.789005 -90.361638 24 23855ft 479kts
20-May-17 10:14 39.910771 -90.288190 23 25106ft 486kts
20-May-17 10:15 40.022181 -90.189120 42 26269ft 491kts
20-May-17 10:16 40.125803 -90.071582 41 27410ft 497kts
20-May-17 10:17 40.231426 -89.952486 41 28456ft 503kts
20-May-17 10:18 40.337619 -89.832072 42 29520ft 507kts
20-May-17 10:19 40.443184 -89.711901 41 30856ft 501kts
20-May-17 10:20 40.548047 -89.591820 42 32109ft 496kts
20-May-17 10:21 40.652155 -89.472294 42 32985ft 497kts
20-May-17 10:22 40.762891 -89.365943 14 32989ft 497kts
20-May-17 10:23 40.897118 -89.332323 10 31911ft 483kts
20-May-17 10:24 41.028430 -89.295177 9 28460ft 475kts
20-May-17 10:25 41.158331 -89.262924 5 25187ft 460kts
20-May-17 10:26 41.281389 -89.241679 6 21964ft 452kts
20-May-17 10:27 41.403979 -89.213406 8 18678ft 438kts
20-May-17 10:28 41.520729 -89.180362 15 15681ft 416kts
20-May-17 10:29 41.627935 -89.134745 38 12592ft 394kts
20-May-17 10:30 41.664631 -89.016244 84 11090ft 339kts
20-May-17 10:31 41.664413 -88.895220 110 10975ft 324kts
20-May-17 10:32 41.645309 -88.776408 105 10971ft 327kts
20-May-17 10:33 41.627960 -88.657855 106 10962ft 311kts
20-May-17 10:34 41.611802 -88.549685 107 10965ft 294kts
20-May-17 10:35 41.595769 -88.442689 107 10972ft 294kts
20-May-17 10:36 41.587617 -88.333995 70 10685ft 313kts
20-May-17 10:37 41.649115 -88.258045 44 10177ft 285kts
20-May-17 10:38 41.706352 -88.191027 45 9206ft 270kts
20-May-17 10:39 41.762138 -88.125322 45 7732ft 268kts
20-May-17 10:40 41.812794 -88.065724 47 6905ft 210kts
20-May-17 10:41 41.852891 -88.018311 49 5626ft 167kts
20-May-17 10:42 41.884060 -87.980825 47 4145ft 154kts
20-May-17 10:43 41.911803 -87.948641 49 2774ft 139kts
20-May-17 10:44 41.940275 -87.914875 44 1194ft 136kts
20-May-17 10:45 41.962124 -87.888956 41 682ft 42kts
20-May-17 10:46 41.969901 -87.882390 357 682ft 19kts
20-May-17 10:47 41.970451 -87.884202 271 682ft 5kts
20-May-17 10:48 41.970498 -87.888905 270 682ft 16kts
20-May-17 10:49 41.970497 -87.894437 268 682ft 12kts
20-May-17 10:50 41.970489 -87.899644 270 682ft 17kts
20-May-17 10:51 41.971556 -87.901198 359 682ft 0kts
20-May-17 10:52 41.972256 -87.901729 318 682ft 6kts
20-May-17 10:53 41.972808 -87.900918 89 682ft 0kts
20-May-17 10:54 41.972808 -87.900918 89 682ft 0kts
20-May-17 10:55 41.972808 -87.900918 89 682ft 0kts
20-May-17 10:56 41.972808 -87.900918 89 682ft 0kts
20-May-17 10:57 41.972808 -87.900918 89 682ft 0kts
20-May-17 10:58 41.972808 -87.900918 89 682ft 0kts
20-May-17 10:59 41.972808 -87.900918 89 682ft 0kts
20-May-17 11:00 41.972808 -87.900918 89 682ft 0kts

Navigation Log

Ident Type
Flight plan parsing failed, navigation log unavailable